sensor_id;sensor_type;location;lat;lon;timestamp;pressure;altitude;pressure_sealevel;temperature;humidity
43691;BME280;29293;52.190;21.226;2023-02-04T00:10:46;99748.30;;;-2.21;100.00
43691;BME280;29293;52.190;21.226;2023-02-04T00:26:00;99777.02;;;-2.29;100.00
43691;BME280;29293;52.190;21.226;2023-02-04T00:41:15;99816.85;;;-2.33;100.00
43691;BME280;29293;52.190;21.226;2023-02-04T00:56:27;99865.41;;;-2.33;100.00
43691;BME280;29293;52.190;21.226;2023-02-04T01:11:38;99908.80;;;-2.33;100.00
43691;BME280;29293;52.190;21.226;2023-02-04T01:26:52;99946.50;;;-2.32;100.00
43691;BME280;29293;52.190;21.226;2023-02-04T01:42:06;99986.86;;;-2.34;100.00
43691;BME280;29293;52.190;21.226;2023-02-04T01:57:17;100035.25;;;-2.32;100.00
43691;BME280;29293;52.190;21.226;2023-02-04T02:12:30;100089.17;;;-2.32;100.00
43691;BME280;29293;52.190;21.226;2023-02-04T02:27:39;100133.36;;;-2.33;100.00
43691;BME280;29293;52.190;21.226;2023-02-04T02:42:50;100199.89;;;-2.32;100.00
43691;BME280;29293;52.190;21.226;2023-02-04T02:58:00;100250.02;;;-2.31;100.00
43691;BME280;29293;52.190;21.226;2023-02-04T03:13:10;100313.71;;;-2.32;100.00
43691;BME280;29293;52.190;21.226;2023-02-04T03:28:18;100361.90;;;-2.29;100.00
43691;BME280;29293;52.190;21.226;2023-02-04T03:43:26;100401.16;;;-2.27;100.00
43691;BME280;29293;52.190;21.226;2023-02-04T03:58:37;100464.29;;;-2.31;100.00
43691;BME280;29293;52.190;21.226;2023-02-04T04:13:47;100504.17;;;-2.46;100.00
43691;BME280;29293;52.190;21.226;2023-02-04T04:29:01;100564.20;;;-2.64;100.00
43691;BME280;29293;52.190;21.226;2023-02-04T04:44:11;100611.90;;;-2.80;100.00
43691;BME280;29293;52.190;21.226;2023-02-04T04:59:22;100659.89;;;-2.80;100.00
43691;BME280;29293;52.190;21.226;2023-02-04T05:14:39;100695.45;;;-2.70;100.00
43691;BME280;29293;52.190;21.226;2023-02-04T05:29:51;100735.86;;;-2.60;100.00
43691;BME280;29293;52.190;21.226;2023-02-04T05:45:00;100781.38;;;-2.50;100.00
43691;BME280;29293;52.190;21.226;2023-02-04T06:00:20;100826.30;;;-2.44;100.00
43691;BME280;29293;52.190;21.226;2023-02-04T06:15:30;100882.49;;;-2.42;100.00
43691;BME280;29293;52.190;21.226;2023-02-04T06:30:41;100936.02;;;-2.45;100.00
43691;BME280;29293;52.190;21.226;2023-02-04T06:45:52;100975.80;;;-2.50;100.00
43691;BME280;29293;52.190;21.226;2023-02-04T07:01:03;101020.17;;;-2.69;100.00
43691;BME280;29293;52.190;21.226;2023-02-04T07:16:15;101068.50;;;-2.94;100.00
43691;BME280;29293;52.190;21.226;2023-02-04T07:31:26;101115.65;;;-3.03;100.00
43691;BME280;29293;52.190;21.226;2023-02-04T07:46:36;101154.48;;;-2.92;100.00
43691;BME280;29293;52.190;21.226;2023-02-04T08:01:46;101187.27;;;-2.77;100.00
43691;BME280;29293;52.190;21.226;2023-02-04T08:16:58;101210.32;;;-2.63;100.00
43691;BME280;29293;52.190;21.226;2023-02-04T08:32:09;101224.66;;;-2.55;100.00
43691;BME280;29293;52.190;21.226;2023-02-04T08:47:23;101254.55;;;-2.42;100.00
43691;BME280;29293;52.190;21.226;2023-02-04T09:02:29;101281.95;;;-2.14;100.00
43691;BME280;29293;52.190;21.226;2023-02-04T09:17:37;101298.46;;;-2.15;100.00
43691;BME280;29293;52.190;21.226;2023-02-04T09:32:47;101303.45;;;-2.00;100.00
43691;BME280;29293;52.190;21.226;2023-02-04T09:47:54;101316.14;;;-1.76;100.00
43691;BME280;29293;52.190;21.226;2023-02-04T10:03:14;101331.95;;;-1.44;100.00
43691;BME280;29293;52.190;21.226;2023-02-04T10:18:30;101351.10;;;-1.33;100.00
43691;BME280;29293;52.190;21.226;2023-02-04T10:33:40;101355.41;;;-1.09;100.00
43691;BME280;29293;52.190;21.226;2023-02-04T10:48:48;101374.57;;;-1.33;100.00
43691;BME280;29293;52.190;21.226;2023-02-04T11:03:56;101396.08;;;-1.71;100.00
43691;BME280;29293;52.190;21.226;2023-02-04T11:19:10;101410.66;;;-1.90;100.00
43691;BME280;29293;52.190;21.226;2023-02-04T11:34:28;101412.06;;;-1.97;100.00
43691;BME280;29293;52.190;21.226;2023-02-04T11:49:38;101416.58;;;-1.58;100.00
43691;BME280;29293;52.190;21.226;2023-02-04T12:04:55;101422.59;;;-1.35;100.00
43691;BME280;29293;52.190;21.226;2023-02-04T12:20:04;101423.64;;;-1.09;100.00
43691;BME280;29293;52.190;21.226;2023-02-04T12:35:12;101437.04;;;-1.22;100.00
43691;BME280;29293;52.190;21.226;2023-02-04T12:50:23;101454.61;;;-1.51;100.00
43691;BME280;29293;52.190;21.226;2023-02-04T13:05:33;101470.87;;;-1.64;100.00
43691;BME280;29293;52.190;21.226;2023-02-04T13:20:43;101499.95;;;-1.95;100.00
43691;BME280;29293;52.190;21.226;2023-02-04T13:35:54;101517.39;;;-2.29;100.00
43691;BME280;29293;52.190;21.226;2023-02-04T13:51:04;101533.64;;;-2.31;100.00
43691;BME280;29293;52.190;21.226;2023-02-04T14:06:14;101553.67;;;-2.27;100.00
43691;BME280;29293;52.190;21.226;2023-02-04T14:21:25;101560.83;;;-2.29;100.00
43691;BME280;29293;52.190;21.226;2023-02-04T14:36:35;101568.33;;;-2.26;100.00
43691;BME280;29293;52.190;21.226;2023-02-04T14:51:44;101578.98;;;-2.18;100.00
43691;BME280;29293;52.190;21.226;2023-02-04T15:06:52;101592.27;;;-2.47;100.00
43691;BME280;29293;52.190;21.226;2023-02-04T15:22:04;101612.77;;;-2.77;100.00
43691;BME280;29293;52.190;21.226;2023-02-04T15:37:13;101621.97;;;-2.99;100.00
43691;BME280;29293;52.190;21.226;2023-02-04T15:52:23;101638.48;;;-3.19;100.00
43691;BME280;29293;52.190;21.226;2023-02-04T16:07:33;101658.13;;;-3.27;100.00
43691;BME280;29293;52.190;21.226;2023-02-04T16:22:45;101685.29;;;-3.30;100.00
43691;BME280;29293;52.190;21.226;2023-02-04T16:37:54;101704.69;;;-3.33;100.00
43691;BME280;29293;52.190;21.226;2023-02-04T16:53:01;101718.43;;;-3.31;100.00
43691;BME280;29293;52.190;21.226;2023-02-04T17:08:09;101745.15;;;-3.36;100.00
43691;BME280;29293;52.190;21.226;2023-02-04T17:23:17;101768.21;;;-3.43;100.00
43691;BME280;29293;52.190;21.226;2023-02-04T17:38:26;101789.58;;;-3.57;100.00
43691;BME280;29293;52.190;21.226;2023-02-04T17:53:33;101803.30;;;-3.70;100.00
43691;BME280;29293;52.190;21.226;2023-02-04T18:08:41;101802.71;;;-3.79;100.00
43691;BME280;29293;52.190;21.226;2023-02-04T18:23:50;101825.10;;;-3.88;100.00
43691;BME280;29293;52.190;21.226;2023-02-04T18:39:08;101842.16;;;-3.90;100.00
43691;BME280;29293;52.190;21.226;2023-02-04T18:54:28;101856.24;;;-3.94;100.00
43691;BME280;29293;52.190;21.226;2023-02-04T19:09:40;101866.30;;;-3.99;100.00
43691;BME280;29293;52.190;21.226;2023-02-04T19:24:54;101890.58;;;-4.01;100.00
43691;BME280;29293;52.190;21.226;2023-02-04T19:40:31;101901.98;;;-4.03;100.00
43691;BME280;29293;52.190;21.226;2023-02-04T19:56:05;101911.64;;;-4.08;100.00
43691;BME280;29293;52.190;21.226;2023-02-04T20:12:39;101927.45;;;-4.10;100.00
43691;BME280;29293;52.190;21.226;2023-02-04T20:28:40;101945.52;;;-4.17;100.00
43691;BME280;29293;52.190;21.226;2023-02-04T20:43:53;101951.89;;;-4.24;100.00
43691;BME280;29293;52.190;21.226;2023-02-04T20:59:22;101965.09;;;-4.34;100.00
43691;BME280;29293;52.190;21.226;2023-02-04T21:14:33;101996.02;;;-4.55;100.00
43691;BME280;29293;52.190;21.226;2023-02-04T21:29:43;102012.11;;;-4.83;100.00
43691;BME280;29293;52.190;21.226;2023-02-04T21:45:00;102029.98;;;-5.13;100.00
43691;BME280;29293;52.190;21.226;2023-02-04T22:00:19;102048.98;;;-5.19;100.00
43691;BME280;29293;52.190;21.226;2023-02-04T22:15:30;102066.36;;;-5.30;100.00
43691;BME280;29293;52.190;21.226;2023-02-04T22:30:40;102078.57;;;-5.65;100.00
43691;BME280;29293;52.190;21.226;2023-02-04T22:45:53;102089.68;;;-5.91;100.00
43691;BME280;29293;52.190;21.226;2023-02-04T23:01:05;102105.73;;;-6.18;100.00
43691;BME280;29293;52.190;21.226;2023-02-04T23:16:15;102134.16;;;-6.43;100.00
43691;BME280;29293;52.190;21.226;2023-02-04T23:31:27;102145.01;;;-6.49;100.00
43691;BME280;29293;52.190;21.226;2023-02-04T23:46:39;102151.30;;;-6.35;100.00
